Time;durP1;ratioP1;P1;durP2;ratioP2;P2;SDS_P1;SDS_P2;PMS_P1;PMS_P2;Temp;Humidity;BMP_temperature;BMP_pressure;BME280_temperature;BME280_humidity;BME280_pressure;Samples;Min_cycle;Max_cycle;Signal;HPM_P1;HPM_P2
2022/06/12 00:02:08;;;;;;;7.30;3.13;;;13.00;99.90;;;;;;5035631;28;20176;-74
2022/06/12 00:04:34;;;;;;;6.73;2.20;;;13.00;99.90;;;;;;5054117;28;20180;-71
2022/06/12 00:07:00;;;;;;;7.60;3.17;;;12.90;99.90;;;;;;5052518;28;20179;-74
2022/06/12 00:09:26;;;;;;;10.93;3.60;;;12.90;99.90;;;;;;5053454;28;20218;-74
2022/06/12 00:11:51;;;;;;;9.07;3.13;;;12.90;99.90;;;;;;5053612;28;20187;-74
2022/06/12 00:14:17;;;;;;;4.70;3.10;;;12.90;99.90;;;;;;5053448;28;20531;-69
2022/06/12 00:16:44;;;;;;;4.77;2.90;;;12.80;99.90;;;;;;5052586;28;20159;-69
2022/06/12 00:19:10;;;;;;;12.70;4.60;;;12.80;99.90;;;;;;5053101;28;20445;-74
2022/06/12 00:21:35;;;;;;;7.47;2.93;;;12.80;99.90;;;;;;5053728;28;20426;-74
2022/06/12 00:24:05;;;;;;;3.57;3.07;;;12.70;99.90;;;;;;5052121;28;20770;-69
2022/06/12 00:26:39;;;;;;;7.40;2.83;;;12.70;99.90;;;;;;5052519;28;20175;-73
2022/06/12 00:29:19;;;;;;;6.47;3.23;;;12.70;99.90;;;;;;5052860;28;20443;-74
2022/06/12 00:31:49;;;;;;;4.63;2.60;;;12.70;99.90;;;;;;5053358;28;20498;-70
2022/06/12 00:34:17;;;;;;;4.70;2.70;;;12.70;99.90;;;;;;5053476;28;20425;-69
2022/06/12 00:36:44;;;;;;;15.20;3.50;;;12.70;99.90;;;;;;5034734;28;20433;-74
2022/06/12 00:39:10;;;;;;;6.80;3.50;;;12.70;99.90;;;;;;5033563;28;20510;-74
2022/06/12 00:41:38;;;;;;;4.33;2.93;;;12.60;99.90;;;;;;5053166;28;20403;-74
2022/06/12 00:44:05;;;;;;;7.37;3.47;;;12.60;99.90;;;;;;5052536;28;20930;-74
2022/06/12 00:46:49;;;;;;;4.90;4.00;;;12.60;99.90;;;;;;5034078;28;20520;-69
2022/06/12 00:49:32;;;;;;;3.87;3.23;;;12.60;99.90;;;;;;5053687;28;20459;-69
2022/06/12 00:52:35;;;;;;;9.33;2.67;;;12.60;99.90;;;;;;5051540;28;20478;-73
2022/06/12 00:55:11;;;;;;;3.53;2.87;;;12.60;99.90;;;;;;5020805;28;20486;-74
2022/06/12 00:57:37;;;;;;;8.83;3.17;;;12.60;99.90;;;;;;5050223;28;20429;-75
2022/06/12 01:00:14;;;;;;;9.83;3.20;;;12.50;99.90;;;;;;5052542;28;20988;-75
2022/06/12 01:02:40;;;;;;;5.33;2.60;;;12.50;99.90;;;;;;5052300;28;20189;-75
2022/06/12 01:07:59;;;;;;;3.00;2.50;;;12.50;99.90;;;;;;5051832;28;20539;-76
2022/06/12 01:10:28;;;;;;;5.80;2.50;;;12.50;99.90;;;;;;5051917;28;20443;-69
2022/06/12 01:13:23;;;;;;;11.97;3.17;;;12.40;99.90;;;;;;5052482;28;20407;-72
2022/06/12 01:15:54;;;;;;;3.70;2.70;;;12.50;99.90;;;;;;5034012;28;20406;-73
2022/06/12 01:18:25;;;;;;;3.97;3.20;;;12.40;99.90;;;;;;5050786;28;20468;-75
2022/06/12 01:21:01;;;;;;;8.70;3.07;;;12.40;99.90;;;;;;5052497;28;20397;-69
2022/06/12 01:23:59;;;;;;;3.63;2.80;;;12.50;99.90;;;;;;5034274;28;20413;-69
2022/06/12 01:26:30;;;;;;;5.70;2.47;;;12.50;99.90;;;;;;5050937;28;20778;-71
2022/06/12 01:29:08;;;;;;;3.10;2.80;;;12.50;99.90;;;;;;5051999;28;20465;-73
2022/06/12 01:31:59;;;;;;;3.50;3.20;;;12.50;99.90;;;;;;5052240;28;20423;-71
2022/06/12 01:34:35;;;;;;;8.70;2.90;;;12.50;99.90;;;;;;5053051;28;20765;-76
2022/06/12 01:37:13;;;;;;;4.40;2.90;;;12.50;99.90;;;;;;5050945;28;20486;-71
2022/06/12 01:40:01;;;;;;;4.20;3.60;;;12.50;99.90;;;;;;5051205;28;20499;-76
2022/06/12 01:42:58;;;;;;;6.93;2.77;;;12.40;99.90;;;;;;5034212;28;20897;-71
2022/06/12 01:45:45;;;;;;;4.53;2.77;;;12.40;99.90;;;;;;5051554;28;20496;-70
2022/06/12 01:48:41;;;;;;;12.80;3.33;;;12.30;99.90;;;;;;5050642;28;20460;-71
2022/06/12 01:51:19;;;;;;;7.03;3.63;;;12.30;99.90;;;;;;5052120;28;20400;-71
2022/06/12 01:53:59;;;;;;;4.97;3.07;;;12.30;99.90;;;;;;5051544;28;20471;-71
2022/06/12 01:56:39;;;;;;;8.53;2.80;;;12.30;99.90;;;;;;5050133;28;20542;-72
2022/06/12 01:59:29;;;;;;;6.33;2.53;;;12.30;99.90;;;;;;5033848;28;20444;-76
2022/06/12 02:02:17;;;;;;;2.93;2.60;;;12.20;99.90;;;;;;5051931;28;20463;-71
2022/06/12 02:04:58;;;;;;;5.10;3.50;;;12.20;99.90;;;;;;5052042;28;20404;-71
2022/06/12 02:07:38;;;;;;;5.20;3.00;;;12.20;99.90;;;;;;5049345;28;20431;-73
2022/06/12 02:10:13;;;;;;;2.67;2.43;;;12.20;99.90;;;;;;5051881;28;20522;-71
2022/06/12 02:15:39;;;;;;;6.10;3.03;;;12.10;99.90;;;;;;5052697;28;20382;-75
2022/06/12 02:18:12;;;;;;;11.43;3.83;;;12.10;99.90;;;;;;5050522;28;20444;-71
2022/06/12 02:20:43;;;;;;;9.33;3.43;;;12.10;99.90;;;;;;5051574;28;20456;-72
2022/06/12 02:23:16;;;;;;;4.47;2.77;;;12.10;99.90;;;;;;5052685;28;20470;-71
2022/06/12 02:25:44;;;;;;;4.83;2.80;;;12.10;99.90;;;;;;5052014;28;20437;-71
2022/06/12 02:28:14;;;;;;;7.40;3.30;;;12.00;99.90;;;;;;5032955;28;20452;-76
2022/06/12 02:30:43;;;;;;;5.43;3.10;;;12.00;99.90;;;;;;5050206;28;20492;-76
2022/06/12 02:33:21;;;;;;;3.20;2.60;;;12.00;99.90;;;;;;5055156;28;20448;-71
2022/06/12 02:35:56;;;;;;;4.97;3.30;;;12.00;99.90;;;;;;5055049;28;20424;-71
2022/06/12 02:38:38;;;;;;;10.67;3.70;;;12.00;99.90;;;;;;5053407;28;20939;-71
2022/06/12 02:41:12;;;;;;;5.20;3.00;;;11.90;99.90;;;;;;5052791;28;20425;-72
2022/06/12 02:43:43;;;;;;;5.70;3.30;;;11.90;99.90;;;;;;5055405;28;20392;-76
2022/06/12 02:46:37;;;;;;;5.60;3.57;;;11.90;99.90;;;;;;5055064;28;20398;-71
2022/06/12 02:49:06;;;;;;;7.77;2.90;;;11.90;99.90;;;;;;5054531;28;20444;-72
2022/06/12 02:51:34;;;;;;;4.60;2.77;;;11.90;99.90;;;;;;5055200;28;20407;-76
2022/06/12 02:54:26;;;;;;;5.87;3.50;;;11.90;99.90;;;;;;5037230;28;20455;-76
2022/06/12 02:57:19;;;;;;;6.93;3.10;;;11.90;99.90;;;;;;5052046;28;20443;-76
2022/06/12 03:00:13;;;;;;;3.70;2.70;;;11.90;99.90;;;;;;5055934;28;20388;-75
2022/06/12 03:02:55;;;;;;;6.23;3.67;;;11.90;99.90;;;;;;5054651;28;20938;-77
2022/06/12 03:05:31;;;;;;;4.10;3.20;;;11.90;99.90;;;;;;5055788;28;20484;-74
2022/06/12 03:08:19;;;;;;;9.77;4.13;;;11.90;99.90;;;;;;5052136;28;20795;-76
2022/06/12 03:11:21;;;;;;;5.83;3.20;;;12.00;99.90;;;;;;5054405;28;20498;-71
2022/06/12 03:13:50;;;;;;;6.53;3.20;;;12.00;99.90;;;;;;5054177;28;20430;-71
2022/06/12 03:16:27;;;;;;;5.67;3.37;;;12.00;99.90;;;;;;5054137;28;20392;-71
2022/06/12 03:19:15;;;;;;;6.17;3.77;;;12.00;99.90;;;;;;5055212;28;20421;-76
2022/06/12 03:21:50;;;;;;;5.90;3.27;;;12.10;99.90;;;;;;5054660;28;20423;-71
2022/06/12 03:24:42;;;;;;;5.03;3.50;;;12.20;99.90;;;;;;5055602;28;20397;-71
2022/06/12 03:27:31;;;;;;;10.40;6.00;;;12.20;99.90;;;;;;5052269;28;20428;-73
2022/06/12 03:30:24;;;;;;;8.23;3.67;;;12.20;99.90;;;;;;5054086;28;20826;-75
2022/06/12 03:33:01;;;;;;;4.77;3.40;;;12.20;99.90;;;;;;5035760;28;20426;-75
2022/06/12 03:35:57;;;;;;;5.43;3.60;;;12.30;99.90;;;;;;5055232;28;20444;-70
2022/06/12 03:38:35;;;;;;;4.50;3.63;;;12.30;99.90;;;;;;5040023;28;20420;-71
2022/06/12 03:41:03;;;;;;;6.73;3.50;;;12.40;99.90;;;;;;5053992;28;20523;-69
2022/06/12 03:43:36;;;;;;;6.23;2.67;;;12.50;99.90;;;;;;5035781;28;20404;-74
2022/06/12 03:46:24;;;;;;;6.77;3.70;;;12.50;99.90;;;;;;5053962;28;20512;-74
2022/06/12 03:49:16;;;;;;;4.80;3.80;;;12.60;99.90;;;;;;5053462;28;20465;-69
2022/06/12 03:51:53;;;;;;;6.77;3.60;;;12.60;99.90;;;;;;5054000;28;20890;-69
2022/06/12 03:54:37;;;;;;;7.63;3.57;;;12.70;99.90;;;;;;5053187;28;20558;-72
2022/06/12 04:00:16;;;;;;;8.70;3.40;;;12.80;99.90;;;;;;5053809;28;21009;-74
2022/06/12 04:02:47;;;;;;;10.63;4.30;;;12.80;99.90;;;;;;5052547;28;20408;-70
2022/06/12 04:05:22;;;;;;;9.97;3.47;;;12.90;99.90;;;;;;5052354;28;20403;-68
2022/06/12 04:07:51;;;;;;;5.73;4.00;;;12.90;99.90;;;;;;5052685;28;20854;-74
2022/06/12 04:10:20;;;;;;;6.60;3.23;;;12.90;99.90;;;;;;5035634;28;20549;-69
2022/06/12 04:12:47;;;;;;;5.40;4.23;;;13.00;99.90;;;;;;5053810;28;20437;-68
2022/06/12 04:15:19;;;;;;;18.63;3.93;;;13.20;99.90;;;;;;5035334;28;20432;-74
2022/06/12 04:17:45;;;;;;;6.60;3.47;;;13.20;99.90;;;;;;5052544;28;20476;-74
2022/06/12 04:21:00;;;;;;;9.87;3.63;;;13.30;99.90;;;;;;5054549;28;20413;-68
2022/06/12 04:23:30;;;;;;;9.50;3.53;;;13.30;99.90;;;;;;5049328;28;21012;-74
2022/06/12 04:26:01;;;;;;;10.33;4.70;;;13.40;99.90;;;;;;5052542;28;20495;-74
2022/06/12 04:28:32;;;;;;;13.63;5.53;;;13.50;99.90;;;;;;5052602;28;20486;-68
2022/06/12 04:31:01;;;;;;;6.53;3.17;;;13.50;99.90;;;;;;5053584;28;20424;-74
2022/06/12 04:33:51;;;;;;;10.27;3.73;;;13.50;99.90;;;;;;5054211;28;20368;-69
2022/06/12 04:36:17;;;;;;;7.00;5.13;;;13.60;99.90;;;;;;5052812;28;20458;-71
2022/06/12 04:38:43;;;;;;;8.13;3.30;;;13.70;99.90;;;;;;5051153;28;20445;-68
2022/06/12 04:41:12;;;;;;;5.97;3.10;;;13.70;99.90;;;;;;5052790;28;20177;-73
2022/06/12 04:43:39;;;;;;;7.83;3.70;;;13.70;99.90;;;;;;5052374;28;20185;-74
2022/06/12 04:46:05;;;;;;;13.53;4.40;;;13.80;99.90;;;;;;5053019;28;20432;-69
2022/06/12 04:48:40;;;;;;;6.20;2.73;;;13.80;99.90;;;;;;5050854;28;21031;-72
2022/06/12 04:51:07;;;;;;;6.90;3.40;;;13.90;99.90;;;;;;5031538;28;20203;-73
2022/06/12 04:53:33;;;;;;;6.00;2.90;;;13.90;99.90;;;;;;5046517;28;20959;-68
2022/06/12 04:56:00;;;;;;;5.87;3.07;;;13.90;99.90;;;;;;5052619;28;20474;-68
2022/06/12 04:58:25;;;;;;;10.43;4.30;;;14.00;99.90;;;;;;5051487;28;20441;-68
2022/06/12 05:00:51;;;;;;;7.80;3.53;;;14.00;99.90;;;;;;5052553;28;20440;-68
2022/06/12 05:03:17;;;;;;;8.10;4.70;;;14.10;99.90;;;;;;5051080;28;20174;-73
2022/06/12 05:05:43;;;;;;;9.70;3.57;;;14.10;99.90;;;;;;5052354;28;20757;-68
2022/06/12 05:08:09;;;;;;;7.90;3.40;;;14.20;99.90;;;;;;5051391;28;20725;-73
2022/06/12 05:10:36;;;;;;;8.80;3.57;;;14.30;99.90;;;;;;5052425;28;20431;-73
2022/06/12 05:13:02;;;;;;;7.50;3.50;;;14.40;99.90;;;;;;5052780;28;20407;-69
2022/06/12 05:15:29;;;;;;;10.43;3.33;;;14.50;99.90;;;;;;5034699;28;20511;-73
2022/06/12 05:17:55;;;;;;;10.40;3.03;;;14.50;99.90;;;;;;5052123;28;20870;-73
2022/06/12 05:20:27;;;;;;;8.97;4.00;;;14.70;99.90;;;;;;5051838;28;20786;-69
2022/06/12 05:22:54;;;;;;;7.87;3.30;;;14.70;99.90;;;;;;5053424;28;20953;-67
2022/06/12 05:25:21;;;;;;;10.23;4.20;;;14.70;99.90;;;;;;5052422;28;20964;-68
2022/06/12 05:27:48;;;;;;;4.57;2.97;;;14.80;99.90;;;;;;5051360;28;20437;-73
2022/06/12 05:30:17;;;;;;;3.57;2.97;;;14.90;99.90;;;;;;5052189;28;20456;-72
2022/06/12 05:32:44;;;;;;;8.43;3.73;;;15.00;99.90;;;;;;5049984;28;20512;-68
2022/06/12 05:35:11;;;;;;;12.10;2.63;;;15.10;99.90;;;;;;5051904;28;20901;-73
2022/06/12 05:37:38;;;;;;;3.90;2.70;;;15.10;99.90;;;;;;5049425;28;20475;-68
2022/06/12 05:40:10;;;;;;;5.40;3.77;;;15.10;99.90;;;;;;5035274;28;20815;-69
2022/06/12 05:42:37;;;;;;;13.30;3.73;;;15.20;99.90;;;;;;5033911;28;20797;-67
2022/06/12 05:45:05;;;;;;;11.70;4.17;;;15.30;99.90;;;;;;5053055;28;20439;-68
2022/06/12 05:47:31;;;;;;;4.90;2.80;;;15.40;99.90;;;;;;5053146;28;20425;-67
2022/06/12 05:49:56;;;;;;;13.70;3.13;;;15.50;99.90;;;;;;5051875;28;20460;-68
2022/06/12 05:52:22;;;;;;;8.00;2.70;;;15.70;99.90;;;;;;5052606;28;20217;-70
2022/06/12 05:54:48;;;;;;;9.53;3.07;;;15.80;99.90;;;;;;5052377;28;20201;-68
2022/06/12 05:57:13;;;;;;;9.80;3.00;;;15.80;99.90;;;;;;5051167;28;20232;-67
2022/06/12 05:59:39;;;;;;;5.63;2.70;;;15.90;99.90;;;;;;5029675;28;20201;-67
2022/06/12 06:02:06;;;;;;;8.50;3.17;;;15.90;99.90;;;;;;5047760;28;20178;-67
2022/06/12 06:04:32;;;;;;;7.23;3.00;;;16.00;99.90;;;;;;5050997;28;20197;-71
2022/06/12 06:06:59;;;;;;;8.63;3.30;;;16.10;99.90;;;;;;5056842;28;20538;-67
2022/06/12 06:09:26;;;;;;;6.63;3.30;;;16.10;99.90;;;;;;5055784;28;21001;-69
2022/06/12 06:11:52;;;;;;;9.40;3.07;;;16.20;99.90;;;;;;5056501;28;20897;-70
2022/06/12 06:14:18;;;;;;;14.37;3.20;;;16.20;99.90;;;;;;5056667;28;20948;-68
2022/06/12 06:16:44;;;;;;;3.77;2.67;;;16.20;99.90;;;;;;5055726;28;20405;-67
2022/06/12 06:19:12;;;;;;;7.47;3.60;;;16.30;99.90;;;;;;5056736;28;20187;-68
2022/06/12 06:21:39;;;;;;;8.10;3.30;;;16.40;99.90;;;;;;5055618;28;20425;-71
2022/06/12 06:24:05;;;;;;;8.13;3.40;;;16.50;99.90;;;;;;5056886;28;20396;-72
2022/06/12 06:26:31;;;;;;;7.53;3.17;;;16.60;99.90;;;;;;5055724;28;20945;-68
2022/06/12 06:28:57;;;;;;;6.23;2.80;;;16.60;99.90;;;;;;5056411;28;20449;-69
2022/06/12 06:31:23;;;;;;;5.53;3.20;;;16.70;99.90;;;;;;5055497;28;20175;-71
2022/06/12 06:33:49;;;;;;;11.50;3.07;;;16.70;99.90;;;;;;5037871;28;20654;-72
2022/06/12 06:36:16;;;;;;;11.63;3.67;;;16.80;99.90;;;;;;5056318;28;20380;-68
2022/06/12 06:38:42;;;;;;;13.60;3.67;;;16.90;99.90;;;;;;5055549;28;20199;-68
2022/06/12 06:41:08;;;;;;;12.70;4.00;;;17.00;99.90;;;;;;5056315;28;20992;-71
2022/06/12 06:46:13;;;;;;;11.10;3.43;;;17.00;99.90;;;;;;5056363;28;20412;-72
2022/06/12 06:46:19;;;;;;;7.87;3.40;;;17.10;99.90;;;;;;5054833;28;20194;-72
2022/06/12 06:48:45;;;;;;;4.77;2.70;;;17.20;99.90;;;;;;5054366;28;20468;-73
2022/06/12 06:51:11;;;;;;;11.20;3.00;;;17.30;99.90;;;;;;5055999;28;20171;-72
2022/06/12 06:53:38;;;;;;;2.97;2.30;;;17.40;99.90;;;;;;5055626;28;20164;-71
2022/06/12 06:56:04;;;;;;;8.97;3.17;;;17.50;99.90;;;;;;5056031;28;20217;-68
2022/06/12 06:58:31;;;;;;;8.43;2.93;;;17.60;99.90;;;;;;5052172;28;20495;-68
2022/06/12 07:00:58;;;;;;;7.00;2.47;;;17.60;99.90;;;;;;5054772;28;20435;-67
2022/06/12 07:03:24;;;;;;;4.60;2.30;;;17.70;99.90;;;;;;5057278;28;20838;-68
2022/06/12 07:05:51;;;;;;;5.13;2.13;;;17.70;99.90;;;;;;5050700;28;20433;-67
2022/06/12 07:08:18;;;;;;;4.00;1.80;;;17.70;99.90;;;;;;5038756;28;20882;-70
2022/06/12 07:10:45;;;;;;;9.63;3.20;;;17.80;99.90;;;;;;5055180;28;20463;-68
2022/06/12 07:13:11;;;;;;;7.97;2.90;;;17.90;99.90;;;;;;5055578;28;20413;-73
2022/06/12 07:15:37;;;;;;;7.77;3.20;;;18.10;99.90;;;;;;5055734;28;20397;-71
2022/06/12 07:18:05;;;;;;;6.03;3.13;;;18.10;99.90;;;;;;5053898;28;20451;-72
2022/06/12 07:20:35;;;;;;;4.40;2.37;;;18.20;99.90;;;;;;5054454;28;20450;-72
2022/06/12 07:23:03;;;;;;;4.30;2.90;;;18.30;99.90;;;;;;5055534;28;20874;-71
2022/06/12 07:25:30;;;;;;;3.30;3.00;;;18.40;99.90;;;;;;5055527;28;20394;-67
2022/06/12 07:27:56;;;;;;;5.27;2.10;;;18.50;99.90;;;;;;5053760;28;20389;-69
2022/06/12 07:30:23;;;;;;;11.50;2.93;;;18.70;99.90;;;;;;5055081;28;20456;-70
2022/06/12 07:32:50;;;;;;;4.30;1.83;;;18.70;99.90;;;;;;5055244;28;20398;-72
2022/06/12 07:35:17;;;;;;;4.10;2.17;;;18.70;99.90;;;;;;5054302;28;20949;-72
2022/06/12 07:37:44;;;;;;;7.63;2.13;;;18.80;99.90;;;;;;5054345;28;20770;-71
2022/06/12 07:40:15;;;;;;;4.73;2.10;;;18.80;99.90;;;;;;5054473;28;20429;-71
2022/06/12 07:42:41;;;;;;;4.87;2.87;;;18.80;99.90;;;;;;5054159;28;20435;-68
2022/06/12 07:45:07;;;;;;;7.40;2.60;;;18.80;99.90;;;;;;5053446;28;20425;-71
2022/06/12 07:47:33;;;;;;;4.10;2.07;;;18.70;99.90;;;;;;5054149;28;20598;-70
2022/06/12 07:50:00;;;;;;;10.20;3.00;;;18.70;99.90;;;;;;5054825;28;20483;-72
2022/06/12 07:52:26;;;;;;;8.03;2.63;;;18.70;99.90;;;;;;5037066;28;20213;-69
2022/06/12 07:54:55;;;;;;;7.83;2.43;;;18.80;99.90;;;;;;5055064;28;20409;-72
2022/06/12 07:57:21;;;;;;;5.90;2.70;;;18.70;99.90;;;;;;5053883;28;20480;-69
2022/06/12 07:59:46;;;;;;;5.53;3.70;;;18.80;99.90;;;;;;5053519;28;20544;-69
2022/06/12 08:02:12;;;;;;;3.30;2.30;;;18.90;99.90;;;;;;5053413;28;20186;-72
2022/06/12 08:04:38;;;;;;;8.10;3.13;;;19.00;99.90;;;;;;5054725;28;20631;-71
2022/06/12 08:07:04;;;;;;;9.37;1.83;;;19.10;99.90;;;;;;5053800;28;20179;-69
2022/06/12 08:09:30;;;;;;;4.13;1.63;;;19.10;99.90;;;;;;5053327;28;20238;-68
2022/06/12 08:11:56;;;;;;;4.23;1.63;;;19.20;99.90;;;;;;5054567;28;20446;-71
2022/06/12 08:14:22;;;;;;;5.30;2.43;;;19.10;99.90;;;;;;5054724;28;20167;-70
2022/06/12 08:16:48;;;;;;;8.83;3.17;;;19.00;99.90;;;;;;5053845;28;20167;-72
2022/06/12 08:22:01;;;;;;;6.60;1.90;;;19.10;99.90;;;;;;5054418;28;20579;-68
2022/06/12 08:24:27;;;;;;;3.93;2.43;;;19.10;99.90;;;;;;5052909;28;20456;-72
2022/06/12 08:26:53;;;;;;;3.37;1.60;;;19.20;99.90;;;;;;5034829;28;20814;-69
2022/06/12 08:29:19;;;;;;;3.60;2.00;;;19.30;99.90;;;;;;5053014;28;20714;-72
2022/06/12 08:31:50;;;;;;;4.13;2.10;;;19.30;99.90;;;;;;5054137;28;20402;-71
2022/06/12 08:34:26;;;;;;;7.10;2.50;;;19.40;99.90;;;;;;5054284;28;20171;-68
2022/06/12 08:36:56;;;;;;;4.80;2.20;;;19.50;99.90;;;;;;5053178;28;20404;-68
2022/06/12 08:39:21;;;;;;;9.30;2.93;;;19.60;99.90;;;;;;5052475;28;20973;-72
2022/06/12 08:42:04;;;;;;;7.87;2.53;;;19.60;99.90;;;;;;5053904;28;20399;-69
2022/06/12 08:44:55;;;;;;;6.67;2.27;;;19.70;99.90;;;;;;5035999;28;20353;-71
2022/06/12 08:47:34;;;;;;;5.73;1.97;;;19.80;99.90;;;;;;5052987;28;20405;-69
2022/06/12 08:50:24;;;;;;;9.03;2.00;;;20.00;99.90;;;;;;5053654;28;20459;-72
2022/06/12 08:52:51;;;;;;;9.73;3.30;;;20.10;99.90;;;;;;5035040;28;20791;-72
2022/06/12 08:55:25;;;;;;;9.90;2.50;;;20.20;99.90;;;;;;5035519;28;20418;-73
2022/06/12 08:57:53;;;;;;;4.13;2.00;;;20.30;99.90;;;;;;5052568;28;20838;-71
2022/06/12 09:00:24;;;;;;;7.03;2.10;;;20.30;99.90;;;;;;5053808;28;20451;-69
2022/06/12 09:02:50;;;;;;;7.90;3.27;;;20.30;99.90;;;;;;5053775;28;20942;-69
2022/06/12 09:05:26;;;;;;;3.40;1.90;;;20.60;99.90;;;;;;5053644;28;20454;-71
2022/06/12 09:08:02;;;;;;;5.60;1.70;;;20.50;99.90;;;;;;5034627;28;20412;-72
2022/06/12 09:10:44;;;;;;;4.47;2.17;;;20.50;99.90;;;;;;5034580;28;21247;-73
2022/06/12 09:13:26;;;;;;;6.23;2.27;;;20.30;99.90;;;;;;5052834;28;20397;-72
2022/06/12 09:16:19;;;;;;;6.10;2.60;;;20.50;99.90;;;;;;5053359;28;20405;-71
2022/06/12 09:18:59;;;;;;;4.47;2.37;;;20.50;99.90;;;;;;5052538;28;20425;-68
2022/06/12 09:21:29;;;;;;;7.77;3.87;;;20.90;99.90;;;;;;5053367;28;20914;-72
2022/06/12 09:24:20;;;;;;;7.60;2.07;;;21.30;99.90;;;;;;5053232;28;20939;-71
2022/06/12 09:26:52;;;;;;;4.33;1.57;;;21.50;96.30;;;;;;5051247;28;20540;-69
2022/06/12 09:29:37;;;;;;;8.03;2.83;;;21.60;96.30;;;;;;5052459;28;20506;-71
2022/06/12 09:32:26;;;;;;;7.00;3.00;;;21.80;96.40;;;;;;5053001;28;20421;-71
2022/06/12 09:35:26;;;;;;;4.60;2.00;;;22.00;96.40;;;;;;5053283;28;20386;-72
2022/06/12 09:38:19;;;;;;;7.03;1.90;;;22.10;96.50;;;;;;5052117;28;20408;-71
2022/06/12 09:41:18;;;;;;;2.47;1.70;;;22.20;93.10;;;;;;5052743;28;20428;-68
2022/06/12 09:44:11;;;;;;;4.73;1.77;;;22.50;90.60;;;;;;5052836;28;20435;-68
2022/06/12 09:46:52;;;;;;;5.20;2.20;;;22.60;90.40;;;;;;5052160;28;21059;-68
2022/06/12 09:49:32;;;;;;;2.60;1.43;;;22.80;88.10;;;;;;5052249;28;20467;-66
2022/06/12 09:52:06;;;;;;;4.77;2.30;;;22.80;78.00;;;;;;5052780;28;20922;-67
2022/06/12 09:54:59;;;;;;;2.80;1.67;;;22.80;73.50;;;;;;5052812;28;20416;-72
2022/06/12 09:57:57;;;;;;;2.60;1.83;;;22.80;71.00;;;;;;5033903;28;20423;-67
2022/06/12 10:01:01;;;;;;;3.07;2.00;;;23.10;73.10;;;;;;5052420;28;20435;-74
2022/06/12 10:03:39;;;;;;;6.30;1.90;;;23.30;69.00;;;;;;4972108;28;20792;-67
2022/06/12 10:06:24;;;;;;;4.57;2.00;;;22.90;62.50;;;;;;5043107;28;20413;-68
2022/06/12 10:09:11;;;;;;;3.37;1.50;;;23.10;62.40;;;;;;5052024;28;20456;-72
2022/06/12 10:11:46;;;;;;;5.80;1.80;;;23.80;62.30;;;;;;5052731;28;20437;-68
2022/06/12 10:14:23;;;;;;;5.70;2.20;;;23.70;59.40;;;;;;5051785;28;20433;-74
2022/06/12 10:16:54;;;;;;;1.60;1.40;;;23.50;58.00;;;;;;5051864;28;21098;-72
2022/06/12 10:19:38;;;;;;;3.63;1.40;;;23.20;48.30;;;;;;5052626;28;20425;-72
2022/06/12 10:22:10;;;;;;;3.60;2.00;;;23.30;47.40;;;;;;5052693;28;20882;-72
2022/06/12 10:24:36;;;;;;;7.00;2.20;;;22.90;46.00;;;;;;5052594;28;20902;-67
2022/06/12 10:27:07;;;;;;;6.30;2.20;;;22.60;48.50;;;;;;5049863;28;20448;-68
2022/06/12 10:29:51;;;;;;;2.20;1.30;;;22.30;44.40;;;;;;5052475;28;20209;-72
2022/06/12 10:32:24;;;;;;;1.73;1.60;;;22.50;49.30;;;;;;5034779;28;20833;-69
2022/06/12 10:34:51;;;;;;;2.87;1.70;;;22.90;45.50;;;;;;5052525;28;20416;-67
2022/06/12 10:37:28;;;;;;;6.90;1.90;;;22.90;50.10;;;;;;5051631;28;20455;-72
2022/06/12 10:40:06;;;;;;;6.17;1.87;;;22.40;45.80;;;;;;5052307;28;20432;-72
2022/06/12 10:42:52;;;;;;;2.20;1.80;;;21.80;43.90;;;;;;5051248;28;20440;-70
2022/06/12 10:45:20;;;;;;;2.93;1.30;;;21.80;43.70;;;;;;5051979;28;20412;-67
2022/06/12 10:47:48;;;;;;;7.43;2.07;;;22.50;47.50;;;;;;5051308;28;20405;-70
2022/06/12 10:50:21;;;;;;;2.17;1.47;;;22.40;44.60;;;;;;5052318;28;20498;-70
2022/06/12 10:52:53;;;;;;;3.97;1.90;;;22.30;47.50;;;;;;5054389;28;20526;-71
2022/06/12 10:55:48;;;;;;;3.63;2.67;;;22.20;53.70;;;;;;5055039;28;20429;-67
2022/06/12 10:58:35;;;;;;;5.13;2.13;;;21.90;46.80;;;;;;5037246;28;20433;-67
2022/06/12 11:01:27;;;;;;;4.53;1.83;;;21.90;47.40;;;;;;5055640;28;20501;-68
2022/06/12 11:04:26;;;;;;;2.50;1.87;;;22.00;52.50;;;;;;5044783;28;20424;-72
2022/06/12 11:06:51;;;;;;;2.43;1.70;;;21.80;43.50;;;;;;5054949;28;20762;-71
2022/06/12 11:09:32;;;;;;;4.20;2.00;;;21.90;48.40;;;;;;5054522;28;20460;-67
2022/06/12 11:12:16;;;;;;;2.50;2.10;;;22.90;54.60;;;;;;5055778;28;20189;-68
2022/06/12 11:15:19;;;;;;;6.27;1.93;;;24.00;63.10;;;;;;5055752;28;20445;-70
2022/06/12 11:17:58;;;;;;;4.90;1.70;;;25.30;60.70;;;;;;5054291;28;20397;-73
2022/06/12 11:20:54;;;;;;;5.13;2.30;;;24.80;53.30;;;;;;5055474;28;20416;-71
2022/06/12 11:23:23;;;;;;;3.87;2.37;;;23.70;41.00;;;;;;5054296;28;21038;-69
2022/06/12 11:26:16;;;;;;;10.13;3.17;;;22.70;30.50;;;;;;5037832;28;20462;-68
2022/06/12 11:29:08;;;;;;;6.83;1.87;;;21.90;31.40;;;;;;5054660;28;20984;-72
2022/06/12 11:31:43;;;;;;;8.07;1.80;;;21.70;34.50;;;;;;5055472;28;20960;-72
2022/06/12 11:34:36;;;;;;;2.40;2.20;;;21.80;39.00;;;;;;5055411;28;20416;-68
2022/06/12 11:37:17;;;;;;;5.53;2.30;;;22.00;41.30;;;;;;5052752;28;20877;-70
2022/06/12 11:39:53;;;;;;;9.93;2.10;;;22.00;37.60;;;;;;5037501;28;20440;-70
2022/06/12 11:42:22;;;;;;;3.33;2.00;;;22.20;38.40;;;;;;5037334;28;20502;-67
2022/06/12 11:45:08;;;;;;;2.90;1.50;;;22.90;39.60;;;;;;5055262;28;20417;-68
2022/06/12 11:47:55;;;;;;;6.13;2.17;;;24.10;48.70;;;;;;5054085;28;20890;-71
2022/06/12 11:50:37;;;;;;;5.20;1.73;;;25.20;40.40;;;;;;5054868;28;20551;-73
2022/06/12 11:53:30;;;;;;;4.43;2.80;;;25.70;42.60;;;;;;5053538;28;20428;-73
2022/06/12 11:56:29;;;;;;;1.90;1.30;;;26.10;36.10;;;;;;5037073;28;20405;-68
2022/06/12 11:59:10;;;;;;;3.13;1.50;;;26.30;27.40;;;;;;5054926;28;20532;-74
2022/06/12 12:02:07;;;;;;;6.20;1.83;;;26.30;18.20;;;;;;5054822;28;20409;-74
2022/06/12 12:04:40;;;;;;;4.77;2.00;;;26.70;16.20;;;;;;5054691;28;20417;-70
2022/06/12 12:07:17;;;;;;;6.30;1.47;;;27.00;9.60;;;;;;5052603;28;20452;-73
2022/06/12 12:10:14;;;;;;;5.43;1.60;;;26.90;3.10;;;;;;5054555;28;20453;-73
2022/06/12 12:12:43;;;;;;;3.10;1.33;;;27.40;6.00;;;;;;5053872;28;20436;-71
2022/06/12 12:15:33;;;;;;;4.20;1.43;;;27.90;4.70;;;;;;5054532;28;20494;-75
2022/06/12 12:18:02;;;;;;;3.60;1.60;;;27.10;1.00;;;;;;5053584;28;20544;-69
2022/06/12 12:20:40;;;;;;;6.87;1.50;;;27.00;1.00;;;;;;5053594;28;20498;-69
2022/06/12 12:23:17;;;;;;;4.20;1.43;;;27.40;1.00;;;;;;5053715;28;20437;-70
2022/06/12 12:25:50;;;;;;;2.53;1.57;;;27.50;1.00;;;;;;5054342;28;20951;-74
2022/06/12 12:28:44;;;;;;;2.30;1.30;;;27.30;1.00;;;;;;5053401;28;20426;-73
2022/06/12 12:31:13;;;;;;;4.90;1.37;;;26.40;1.00;;;;;;5053578;28;20890;-67
2022/06/12 12:33:41;;;;;;;3.40;1.80;;;26.00;1.00;;;;;;5053233;28;20770;-74
2022/06/12 12:41:51;;;;;;;2.80;1.40;;;27.10;1.00;;;;;;5054321;28;20409;-73
2022/06/12 12:44:37;;;;;;;2.90;1.60;;;26.60;1.00;;;;;;5036184;28;20914;-74
2022/06/12 12:47:28;;;;;;;3.23;1.70;;;26.50;1.00;;;;;;5052397;28;20446;-69
2022/06/12 12:50:02;;;;;;;3.43;2.20;;;26.40;1.00;;;;;;5035746;28;20461;-75
2022/06/12 12:52:50;;;;;;;5.33;1.63;;;26.20;1.00;;;;;;5053697;28;20408;-74
2022/06/12 12:55:35;;;;;;;4.57;1.83;;;26.00;1.00;;;;;;5053744;28;20397;-69
2022/06/12 12:58:16;;;;;;;5.10;2.83;;;26.30;1.00;;;;;;5052642;28;20405;-68
2022/06/12 13:00:42;;;;;;;2.87;1.40;;;26.60;1.00;;;;;;5053635;28;20401;-73
2022/06/12 13:03:23;;;;;;;3.00;1.30;;;26.20;1.00;;;;;;5035048;28;20445;-70
2022/06/12 13:05:48;;;;;;;3.07;1.50;;;26.60;1.00;;;;;;5053082;28;20397;-74
2022/06/12 13:08:48;;;;;;;4.40;1.70;;;26.80;1.00;;;;;;5052660;28;20541;-69
2022/06/12 13:11:37;;;;;;;1.83;1.47;;;27.20;1.00;;;;;;5053473;28;20179;-69
2022/06/12 13:14:12;;;;;;;4.90;2.03;;;27.60;1.00;;;;;;5035443;28;20508;-70
2022/06/12 13:17:11;;;;;;;4.70;2.00;;;28.50;1.00;;;;;;5033738;28;20929;-74
2022/06/12 13:20:01;;;;;;;2.63;1.37;;;28.90;1.00;;;;;;5053331;28;20464;-68
2022/06/12 13:22:51;;;;;;;2.60;1.30;;;29.20;1.00;;;;;;5052744;28;20401;-75
2022/06/12 13:25:25;;;;;;;1.77;1.20;;;28.90;1.00;;;;;;5053273;28;20463;-73
2022/06/12 13:27:58;;;;;;;2.53;1.83;;;27.90;1.00;;;;;;5052302;28;20409;-66
2022/06/12 13:30:26;;;;;;;2.80;1.53;;;26.70;1.00;;;;;;5051938;28;20457;-67
2022/06/12 13:32:52;;;;;;;2.73;1.50;;;25.80;1.00;;;;;;5053252;28;20894;-67
2022/06/12 13:35:34;;;;;;;3.67;2.30;;;25.30;1.00;;;;;;5035560;28;20448;-71
2022/06/12 13:38:20;;;;;;;3.30;1.73;;;25.00;1.00;;;;;;5033981;28;20423;-70
2022/06/12 13:41:14;;;;;;;2.97;1.70;;;25.40;1.00;;;;;;5051818;28;20433;-69
2022/06/12 13:43:41;;;;;;;4.50;1.87;;;25.40;1.00;;;;;;5029841;28;20906;-68
2022/06/12 13:46:32;;;;;;;2.87;1.23;;;25.30;1.00;;;;;;5052958;28;20405;-69
2022/06/12 13:49:00;;;;;;;2.80;1.70;;;25.00;1.00;;;;;;5052881;28;20460;-68